createdAt,value
2018-12-20T00:00:40.812Z,85.71
2018-12-20T00:03:09.312Z,85.78
2018-12-20T00:05:37.975Z,85.50
2018-12-20T00:08:06.547Z,86.14
2018-12-20T00:10:35.010Z,85.66
2018-12-20T00:13:03.481Z,85.97
2018-12-20T00:15:32.063Z,86.49
2018-12-20T00:18:00.683Z,86.26
2018-12-20T00:20:29.231Z,87.31
2018-12-20T00:22:57.733Z,86.88
2018-12-20T00:31:13.671Z,87.20
2018-12-20T00:36:35.496Z,87.15
2018-12-20T00:39:06.142Z,87.04
2018-12-20T00:45:07.383Z,86.56
2018-12-20T01:27:50.672Z,87.54
2018-12-20T01:30:19.221Z,88.07
2018-12-20T01:32:47.753Z,87.42
2018-12-20T01:35:16.261Z,87.91
2018-12-20T01:43:30.321Z,89.84
2018-12-20T01:45:58.792Z,89.95
2018-12-20T01:51:23.782Z,90.27
2018-12-20T01:53:52.388Z,90.35
2018-12-20T01:56:20.909Z,89.54
2018-12-20T01:58:49.390Z,89.42
2018-12-20T02:04:10.417Z,88.98
2018-12-20T02:12:24.227Z,89.86
2018-12-20T02:14:52.871Z,90.50
2018-12-20T02:17:21.393Z,90.25
2018-12-20T02:19:49.844Z,90.28
2018-12-20T02:22:18.568Z,90.50
2018-12-20T02:24:47.031Z,90.57
2018-12-20T02:27:19.552Z,91.11
2018-12-20T02:29:48.355Z,90.96
2018-12-20T02:40:55.440Z,91.98
2018-12-20T02:43:23.927Z,91.98
2018-12-20T02:48:44.619Z,92.19
2018-12-20T02:58:31.521Z,92.44
2018-12-20T03:03:53.135Z,93.96
2018-12-20T03:12:07.210Z,94.01
2018-12-20T03:14:36.135Z,93.81
2018-12-20T03:17:05.126Z,93.35
2018-12-20T03:19:33.846Z,93.53
2018-12-20T03:22:02.562Z,93.40
2018-12-20T03:24:31.219Z,93.34
2018-12-20T03:27:00.009Z,93.56
2018-12-20T03:29:28.600Z,93.16
2018-12-20T03:31:57.626Z,93.29
2018-12-20T03:34:26.441Z,93.63
2018-12-20T03:36:55.106Z,93.56
2018-12-20T03:39:23.657Z,93.72
2018-12-20T03:41:52.266Z,93.33
2018-12-20T03:44:20.886Z,93.45
2018-12-20T03:46:49.408Z,93.21
2018-12-20T03:49:17.946Z,93.12
2018-12-20T03:51:46.694Z,93.26
2018-12-20T03:54:15.707Z,94.02
2018-12-20T03:56:44.292Z,93.69
2018-12-20T03:59:12.786Z,93.49
2018-12-20T04:01:41.382Z,94.14
2018-12-20T04:04:09.915Z,93.86
2018-12-20T04:12:55.284Z,94.38
2018-12-20T04:21:08.719Z,94.25
2018-12-20T04:23:37.267Z,94.78
2018-12-20T04:26:06.444Z,94.73
2018-12-20T04:28:34.866Z,94.60
2018-12-20T04:31:03.333Z,94.88
2018-12-20T04:33:31.767Z,94.35
2018-12-20T04:36:00.345Z,94.37
2018-12-20T04:38:28.882Z,94.55
2018-12-20T04:40:57.622Z,94.71
2018-12-20T04:43:26.228Z,93.90
2018-12-20T04:45:54.886Z,94.34
2018-12-20T04:54:08.674Z,93.74
2018-12-20T04:56:37.316Z,94.25
2018-12-20T05:01:58.570Z,94.37
2018-12-20T05:04:27.023Z,94.81
2018-12-20T05:06:55.478Z,94.64
2018-12-20T05:09:23.891Z,93.94
2018-12-20T05:11:52.343Z,94.03
2018-12-20T05:14:20.983Z,93.96
2018-12-20T05:16:49.643Z,94.29
2018-12-20T05:25:03.422Z,94.43
2018-12-20T05:27:31.891Z,94.10
2018-12-20T05:33:01.594Z,94.69
2018-12-20T05:35:30.329Z,94.43
2018-12-20T05:43:45.053Z,95.28
2018-12-20T05:46:13.662Z,95.16
2018-12-20T05:48:42.326Z,94.61
2018-12-20T05:51:10.906Z,94.77
2018-12-20T05:53:39.441Z,94.41
2018-12-20T05:56:07.957Z,95.07
2018-12-20T05:58:36.392Z,94.94
2018-12-20T06:01:04.866Z,94.78
2018-12-20T06:03:33.329Z,95.43
2018-12-20T06:06:01.860Z,95.20
2018-12-20T06:08:30.323Z,95.92
2018-12-20T06:10:58.767Z,95.45
2018-12-20T06:13:27.396Z,95.90
2018-12-20T06:15:55.915Z,96.06
2018-12-20T06:18:24.629Z,95.84
2018-12-20T06:20:53.251Z,96.05
2018-12-20T06:23:21.738Z,96.34
2018-12-20T06:25:50.288Z,96.56
2018-12-20T06:28:18.773Z,96.10
2018-12-20T06:30:47.296Z,96.71
2018-12-20T06:33:16.783Z,96.47
2018-12-20T06:35:45.235Z,97.20
2018-12-20T06:38:14.279Z,96.88
2018-12-20T06:40:42.734Z,96.96
2018-12-20T06:43:11.284Z,96.94
2018-12-20T06:45:39.748Z,96.85
2018-12-20T06:48:08.248Z,96.32
2018-12-20T06:50:36.710Z,96.13
2018-12-20T06:53:05.295Z,96.49
2018-12-20T06:55:33.735Z,96.64
2018-12-20T06:58:02.387Z,96.25
2018-12-20T07:00:30.932Z,96.41
2018-12-20T07:02:59.452Z,96.09
2018-12-20T07:05:27.915Z,96.43
2018-12-20T07:07:56.408Z,95.52
2018-12-20T07:10:24.911Z,96.06
2018-12-20T07:12:54.821Z,95.24
2018-12-20T07:15:23.489Z,95.24
2018-12-20T07:17:52.048Z,94.71
2018-12-20T07:20:20.523Z,94.99
2018-12-20T07:22:49.122Z,95.05
2018-12-20T07:25:17.557Z,95.36
2018-12-20T07:27:46.038Z,94.70
2018-12-20T07:30:18.142Z,94.98
2018-12-20T07:35:47.244Z,94.47
2018-12-20T07:41:09.800Z,95.67
2018-12-20T07:46:37.807Z,95.68
2018-12-20T07:49:01.751Z,95.53
2018-12-20T07:51:30.248Z,95.70
2018-12-20T07:59:24.809Z,95.88
2018-12-20T08:04:46.076Z,96.91
2018-12-20T08:07:16.032Z,96.67
2018-12-20T08:09:44.603Z,97.10
2018-12-20T08:12:13.096Z,96.76
2018-12-20T08:14:42.163Z,96.69
2018-12-20T08:17:10.606Z,97.04
2018-12-20T08:19:39.110Z,96.82
2018-12-20T08:25:00.480Z,97.54
2018-12-20T08:27:28.960Z,97.29
2018-12-20T08:38:33.064Z,97.38
2018-12-20T08:41:01.524Z,96.91
2018-12-20T08:43:29.996Z,96.35
2018-12-20T08:45:58.441Z,96.64
2018-12-20T08:48:26.907Z,96.91
2018-12-20T08:50:55.376Z,96.78
2018-12-20T08:53:23.867Z,96.89
2018-12-20T08:55:52.323Z,96.87
2018-12-20T08:58:20.796Z,96.22
2018-12-20T09:00:49.245Z,96.25
2018-12-20T09:03:17.717Z,96.32
2018-12-20T09:05:46.159Z,95.52
2018-12-20T09:14:00.067Z,96.34
2018-12-20T09:16:28.544Z,96.11
2018-12-20T09:18:57.034Z,96.62
2018-12-20T09:21:26.535Z,97.12
2018-12-20T09:23:58.701Z,96.71
2018-12-20T09:26:27.530Z,96.85
2018-12-20T09:28:56.148Z,97.28
2018-12-20T09:31:24.620Z,97.33
2018-12-20T09:33:53.094Z,98.00
2018-12-20T09:36:21.812Z,98.02
2018-12-20T09:38:50.285Z,98.34
2018-12-20T09:41:18.835Z,97.86
2018-12-20T09:43:47.407Z,98.47
2018-12-20T09:46:15.863Z,98.32
2018-12-20T09:48:46.329Z,98.30
2018-12-20T09:51:14.955Z,98.41
2018-12-20T09:53:43.452Z,98.23
2018-12-20T09:56:12.044Z,98.38
2018-12-20T09:58:40.490Z,98.38
2018-12-20T10:01:09.017Z,97.94
2018-12-20T10:03:37.559Z,97.74
2018-12-20T10:06:06.161Z,97.57
2018-12-20T10:08:34.767Z,97.90
2018-12-20T10:11:03.247Z,97.61
2018-12-20T10:13:31.696Z,97.15
2018-12-20T10:18:59.035Z,95.64
2018-12-20T10:21:27.488Z,95.55
2018-12-20T10:23:55.951Z,95.81
2018-12-20T10:26:24.519Z,95.83
2018-12-20T10:28:52.938Z,95.55
2018-12-20T10:31:21.423Z,96.17
2018-12-20T10:33:49.880Z,95.64
2018-12-20T10:36:18.341Z,95.78
2018-12-20T10:38:46.923Z,96.28
2018-12-20T10:41:15.398Z,96.39
2018-12-20T10:43:43.826Z,95.94
2018-12-20T10:46:12.286Z,95.58
2018-12-20T10:48:40.722Z,95.24
2018-12-20T10:51:09.173Z,95.45
2018-12-20T10:53:37.616Z,95.22
2018-12-20T10:56:06.100Z,95.19
2018-12-20T10:58:34.546Z,95.11
2018-12-20T11:01:08.339Z,95.15
2018-12-20T11:03:42.151Z,94.83
2018-12-20T11:07:14.501Z,95.55
2018-12-20T11:09:48.206Z,95.02
2018-12-20T11:12:20.789Z,95.06
2018-12-20T11:14:49.263Z,95.34
2018-12-20T11:17:17.691Z,95.68
2018-12-20T11:19:46.163Z,95.67
2018-12-20T11:22:14.603Z,95.68
2018-12-20T11:24:43.076Z,95.07
2018-12-20T11:27:11.508Z,95.07
2018-12-20T11:29:40.007Z,94.34
2018-12-20T11:32:08.472Z,94.99
2018-12-20T11:34:36.911Z,94.58
2018-12-20T11:37:05.375Z,94.12
2018-12-20T11:39:33.870Z,94.31
2018-12-20T11:42:02.331Z,94.02
2018-12-20T11:44:31.003Z,94.49
2018-12-20T11:46:59.583Z,93.98
2018-12-20T11:49:28.042Z,94.31
2018-12-20T11:51:56.487Z,93.72
2018-12-20T11:54:24.932Z,93.85
2018-12-20T11:56:53.378Z,92.64
2018-12-20T11:59:21.826Z,92.44
2018-12-20T12:01:50.294Z,92.80
2018-12-20T12:04:18.714Z,92.93
2018-12-20T12:06:47.191Z,93.09
2018-12-20T12:09:15.615Z,92.96
2018-12-20T12:11:44.125Z,92.64
2018-12-20T12:14:12.591Z,92.92
2018-12-20T12:16:41.175Z,93.34
2018-12-20T12:19:09.583Z,93.02
2018-12-20T12:21:38.038Z,92.77
2018-12-20T12:24:06.468Z,93.03
2018-12-20T12:26:35.038Z,92.46
2018-12-20T12:29:03.601Z,92.56
2018-12-20T12:31:32.076Z,92.81
2018-12-20T12:34:00.527Z,92.33
2018-12-20T12:36:29.140Z,91.95
2018-12-20T12:38:57.583Z,90.77
2018-12-20T12:41:26.084Z,89.46
2018-12-20T12:43:54.515Z,89.39
2018-12-20T12:46:22.963Z,89.60
2018-12-20T12:48:51.392Z,89.47
2018-12-20T12:51:19.814Z,90.29
2018-12-20T12:53:48.285Z,90.85
2018-12-20T12:56:16.724Z,91.26
2018-12-20T12:58:45.191Z,90.84
2018-12-20T13:01:14.776Z,90.04
2018-12-20T13:03:43.255Z,90.06
2018-12-20T13:06:11.739Z,89.54
2018-12-20T13:08:40.215Z,87.49
2018-12-20T13:11:08.671Z,85.43
2018-12-20T13:13:37.146Z,86.51
2018-12-20T13:16:05.628Z,87.02
2018-12-20T13:18:34.106Z,87.41
2018-12-20T13:21:02.540Z,87.93
2018-12-20T13:23:30.999Z,88.40
2018-12-20T13:25:59.459Z,88.61
2018-12-20T13:28:27.919Z,89.42
2018-12-20T13:30:56.391Z,89.86
2018-12-20T13:33:24.850Z,89.84
2018-12-20T13:35:53.286Z,90.00
2018-12-20T13:38:21.801Z,90.08
2018-12-20T13:40:50.315Z,90.16
2018-12-20T13:43:18.791Z,89.60
2018-12-20T13:45:47.234Z,89.92
2018-12-20T13:48:22.173Z,89.85
2018-12-20T13:50:46.175Z,89.88
2018-12-20T13:53:14.630Z,89.58
2018-12-20T13:55:43.093Z,89.66
2018-12-20T13:58:11.622Z,89.69
2018-12-20T14:00:40.484Z,89.26
2018-12-20T14:03:09.086Z,89.78
2018-12-20T14:05:37.527Z,89.25
2018-12-20T14:08:05.995Z,89.18
2018-12-20T14:10:34.477Z,88.82
2018-12-20T14:13:02.948Z,88.84
2018-12-20T14:15:31.431Z,88.91
2018-12-20T14:17:59.899Z,88.98
2018-12-20T14:20:28.331Z,89.59
2018-12-20T14:22:56.802Z,90.36
2018-12-20T14:25:25.261Z,90.38
2018-12-20T14:27:53.739Z,90.81
2018-12-20T14:30:22.157Z,90.94
2018-12-20T14:32:50.602Z,90.92
2018-12-20T14:35:19.071Z,91.17
2018-12-20T14:37:47.519Z,90.87
2018-12-20T14:40:15.998Z,90.70
2018-12-20T14:42:44.519Z,90.79
2018-12-20T14:45:13.126Z,91.38
2018-12-20T14:47:41.551Z,91.44
2018-12-20T14:50:10.331Z,92.50
2018-12-20T14:52:38.776Z,92.69
2018-12-20T14:55:08.765Z,92.38
2018-12-20T14:57:37.311Z,92.37
2018-12-20T15:00:07.683Z,91.94
2018-12-20T15:02:36.138Z,92.06
2018-12-20T15:05:04.955Z,92.40
2018-12-20T15:07:33.418Z,92.68
2018-12-20T15:10:01.937Z,93.05
2018-12-20T15:12:30.381Z,93.09
2018-12-20T15:14:58.881Z,93.70
2018-12-20T15:17:27.343Z,93.62
2018-12-20T15:19:55.827Z,93.96
2018-12-20T15:22:24.272Z,93.83
2018-12-20T15:24:52.751Z,94.36
2018-12-20T15:27:21.194Z,94.23
2018-12-20T15:29:49.656Z,94.08
2018-12-20T15:32:18.066Z,94.51
2018-12-20T15:34:46.581Z,94.49
2018-12-20T15:37:15.034Z,94.55
2018-12-20T15:39:43.535Z,94.01
2018-12-20T15:42:11.992Z,93.54
2018-12-20T15:44:40.501Z,93.86
2018-12-20T15:47:09.044Z,94.29
2018-12-20T15:49:41.916Z,93.92
2018-12-20T15:52:08.016Z,93.59
2018-12-20T15:54:36.512Z,93.42
2018-12-20T15:57:04.963Z,93.74
2018-12-20T15:59:33.407Z,93.33
2018-12-20T16:02:01.851Z,93.46
2018-12-20T16:04:30.328Z,93.47
2018-12-20T16:06:58.779Z,93.99
2018-12-20T16:09:27.236Z,94.35
2018-12-20T16:11:55.680Z,94.04
2018-12-20T16:14:24.201Z,94.14
2018-12-20T16:16:52.641Z,93.61
2018-12-20T16:19:21.138Z,93.01
2018-12-20T16:21:49.819Z,93.22
2018-12-20T16:24:18.287Z,92.73
2018-12-20T16:26:46.763Z,92.85
2018-12-20T16:29:15.193Z,92.74
2018-12-20T16:31:43.777Z,92.96
2018-12-20T16:34:12.548Z,92.78
2018-12-20T16:36:41.047Z,92.61
2018-12-20T16:39:09.717Z,92.25
2018-12-20T16:41:38.187Z,92.20
2018-12-20T16:44:06.619Z,92.10
2018-12-20T16:46:35.097Z,91.93
2018-12-20T16:49:03.551Z,91.93
2018-12-20T16:51:32.021Z,91.77
2018-12-20T16:54:00.462Z,92.17
2018-12-20T16:56:28.936Z,92.25
2018-12-20T16:58:57.367Z,93.28
2018-12-20T17:01:25.855Z,93.26
2018-12-20T17:03:54.295Z,93.34
2018-12-20T17:06:22.776Z,93.69
2018-12-20T17:08:51.205Z,94.21
2018-12-20T17:11:19.664Z,93.72
2018-12-20T17:13:48.131Z,94.11
2018-12-20T17:16:16.741Z,93.68
2018-12-20T17:18:45.194Z,94.13
2018-12-20T17:21:13.675Z,93.46
2018-12-20T17:23:42.111Z,93.90
2018-12-20T17:26:10.558Z,93.99
2018-12-20T17:28:39.007Z,94.85
2018-12-20T17:31:07.459Z,94.93
2018-12-20T17:33:35.895Z,95.58
2018-12-20T17:36:04.379Z,95.63
2018-12-20T17:38:32.943Z,95.26
2018-12-20T17:41:01.435Z,95.08
2018-12-20T17:43:29.891Z,94.81
2018-12-20T17:45:58.375Z,94.87
2018-12-20T17:48:29.433Z,94.61
2018-12-20T17:50:57.314Z,95.16
2018-12-20T17:53:25.879Z,94.47
2018-12-20T17:55:54.553Z,95.08
2018-12-20T17:58:23.199Z,94.89
2018-12-20T18:00:51.680Z,94.28
2018-12-20T18:03:20.167Z,94.54
2018-12-20T18:05:48.648Z,94.85
2018-12-20T18:08:17.097Z,95.35
2018-12-20T18:10:45.571Z,95.71
2018-12-20T18:13:14.054Z,95.46
2018-12-20T18:15:42.553Z,95.65
2018-12-20T18:18:10.971Z,95.94
2018-12-20T18:20:39.427Z,95.63
2018-12-20T18:23:07.954Z,95.72
2018-12-20T18:25:36.571Z,95.67
2018-12-20T18:28:05.039Z,95.70
2018-12-20T18:30:33.517Z,96.28
2018-12-20T18:33:02.092Z,95.49
2018-12-20T18:35:30.574Z,95.78
2018-12-20T18:37:59.032Z,95.24
2018-12-20T18:40:27.552Z,95.22
2018-12-20T18:42:56.002Z,95.20
2018-12-20T18:45:24.476Z,95.47
2018-12-20T18:47:53.055Z,95.20
2018-12-20T18:50:21.520Z,95.30
2018-12-20T18:52:50.032Z,95.37
2018-12-20T18:55:18.534Z,95.16
2018-12-20T18:57:46.982Z,95.22
2018-12-20T19:00:15.664Z,95.20
2018-12-20T19:02:44.127Z,94.68
2018-12-20T19:05:12.580Z,94.66
2018-12-20T19:07:41.064Z,94.79
2018-12-20T19:10:09.713Z,94.87
2018-12-20T19:12:38.184Z,94.62
2018-12-20T19:15:08.419Z,94.33
2018-12-20T19:17:36.900Z,94.45
2018-12-20T19:20:06.914Z,94.42
2018-12-20T19:22:37.074Z,93.80
2018-12-20T19:25:06.435Z,94.15
2018-12-20T19:27:34.908Z,93.73
2018-12-20T19:30:03.515Z,93.86
2018-12-20T19:32:31.979Z,94.24
2018-12-20T19:35:00.439Z,93.82
2018-12-20T19:37:28.927Z,94.09
2018-12-20T19:40:02.428Z,94.15
2018-12-20T19:42:30.879Z,93.59
2018-12-20T19:44:59.303Z,94.11
2018-12-20T19:47:27.763Z,94.17
2018-12-20T19:50:04.602Z,94.10
2018-12-20T19:52:27.159Z,94.34
2018-12-20T19:54:55.811Z,94.47
2018-12-20T19:57:24.684Z,94.05
2018-12-20T19:59:54.043Z,94.35
2018-12-20T20:02:23.524Z,94.59
2018-12-20T20:04:52.881Z,94.47
2018-12-20T20:07:21.411Z,94.40
2018-12-20T20:09:49.892Z,94.67
2018-12-20T20:12:18.410Z,94.80
2018-12-20T20:14:47.072Z,94.53
2018-12-20T20:17:15.539Z,94.40
2018-12-20T20:19:43.978Z,94.37
2018-12-20T20:22:12.694Z,94.33
2018-12-20T20:24:41.130Z,93.78
2018-12-20T20:27:09.607Z,94.10
2018-12-20T20:29:38.049Z,93.73
2018-12-20T20:32:06.548Z,94.27
2018-12-20T20:34:35.105Z,94.00
2018-12-20T20:37:03.584Z,93.88
2018-12-20T20:39:32.029Z,94.08
2018-12-20T20:42:00.503Z,93.99
2018-12-20T20:44:28.954Z,93.73
2018-12-20T20:46:57.423Z,93.24
2018-12-20T20:49:25.871Z,93.02
2018-12-20T20:51:54.373Z,93.26
2018-12-20T20:54:22.815Z,93.79
2018-12-20T20:56:51.293Z,94.12
2018-12-20T20:59:19.743Z,93.58
2018-12-20T21:01:48.311Z,94.01
2018-12-20T21:04:16.765Z,93.57
2018-12-20T21:06:47.074Z,93.48
2018-12-20T21:09:15.687Z,93.62
2018-12-20T21:11:44.128Z,92.89
2018-12-20T21:14:12.624Z,92.88
2018-12-20T21:16:41.077Z,92.93
2018-12-20T21:19:09.536Z,93.08
2018-12-20T21:21:38.012Z,93.28
2018-12-20T21:24:06.615Z,93.19
2018-12-20T21:26:35.067Z,93.20
2018-12-20T21:29:03.543Z,93.22
2018-12-20T21:31:31.982Z,92.99
2018-12-20T21:34:00.492Z,93.03
2018-12-20T21:36:28.945Z,92.87
2018-12-20T21:38:57.423Z,93.31
2018-12-20T21:41:25.895Z,93.30
2018-12-20T21:43:54.358Z,93.09
2018-12-20T21:46:22.813Z,92.99
2018-12-20T21:48:51.284Z,93.12
2018-12-20T21:51:19.726Z,93.42
2018-12-20T21:53:54.847Z,93.27
2018-12-20T22:03:14.013Z,94.33
2018-12-20T22:05:42.427Z,94.48
2018-12-20T22:08:10.894Z,94.68
2018-12-20T22:10:39.339Z,94.82
2018-12-20T22:13:07.810Z,94.82
2018-12-20T22:15:36.286Z,95.29
2018-12-20T22:18:04.763Z,95.10
2018-12-20T22:20:33.206Z,95.02
2018-12-20T22:23:01.663Z,94.96
2018-12-20T22:25:30.140Z,94.36
2018-12-20T22:27:58.588Z,94.36
2018-12-20T22:30:27.075Z,94.45
2018-12-20T22:32:55.506Z,93.97
2018-12-20T22:35:23.961Z,93.76
2018-12-20T22:37:52.403Z,93.88
2018-12-20T22:40:20.859Z,93.86
2018-12-20T22:42:49.281Z,93.60
2018-12-20T22:45:17.737Z,93.43
2018-12-20T22:47:46.178Z,93.48
2018-12-20T22:50:14.637Z,93.34
2018-12-20T22:52:43.203Z,93.30
2018-12-20T22:55:11.667Z,93.05
2018-12-20T22:57:40.081Z,92.93
2018-12-20T23:00:11.360Z,93.22
2018-12-20T23:02:39.962Z,93.13
2018-12-20T23:05:08.443Z,92.72
2018-12-20T23:07:36.904Z,92.76
2018-12-20T23:10:05.943Z,93.17
2018-12-20T23:12:34.379Z,93.27
2018-12-20T23:15:02.887Z,92.84
2018-12-20T23:17:31.331Z,92.88
2018-12-20T23:19:59.782Z,93.18
2018-12-20T23:22:28.217Z,93.07
2018-12-20T23:24:56.683Z,93.06
2018-12-20T23:27:25.111Z,92.71
2018-12-20T23:29:53.550Z,92.75
2018-12-20T23:32:21.991Z,92.38
2018-12-20T23:34:50.458Z,92.44
2018-12-20T23:37:18.903Z,92.33
2018-12-20T23:39:47.382Z,92.41
2018-12-20T23:42:16.339Z,92.37
2018-12-20T23:44:44.847Z,92.02
2018-12-20T23:47:13.275Z,92.35
2018-12-20T23:49:41.730Z,91.90
2018-12-20T23:52:10.239Z,92.21
2018-12-20T23:54:38.715Z,92.07
2018-12-20T23:57:07.147Z,92.08
2018-12-20T23:59:35.614Z,92.32
